sensor_id;sensor_type;location;lat;lon;timestamp;temperature;humidity
52799;DHT22;38667;42.872;74.622;2023-07-13T00:00:07;24.50;40.00
52799;DHT22;38667;42.872;74.622;2023-07-13T00:02:35;24.40;41.20
52799;DHT22;38667;42.872;74.622;2023-07-13T00:05:01;24.20;40.80
52799;DHT22;38667;42.872;74.622;2023-07-13T00:07:28;24.10;41.40
52799;DHT22;38667;42.872;74.622;2023-07-13T00:09:54;24.10;41.10
52799;DHT22;38667;42.872;74.622;2023-07-13T00:12:25;24.40;39.80
52799;DHT22;38667;42.872;74.622;2023-07-13T00:14:52;24.60;39.60
52799;DHT22;38667;42.872;74.622;2023-07-13T00:17:18;24.60;39.30
52799;DHT22;38667;42.872;74.622;2023-07-13T00:19:46;24.50;39.90
52799;DHT22;38667;42.872;74.622;2023-07-13T00:22:13;24.40;40.90
52799;DHT22;38667;42.872;74.622;2023-07-13T00:24:39;24.50;40.40
52799;DHT22;38667;42.872;74.622;2023-07-13T00:27:05;24.70;39.80
52799;DHT22;38667;42.872;74.622;2023-07-13T00:29:32;24.90;39.70
52799;DHT22;38667;42.872;74.622;2023-07-13T00:31:58;24.90;40.40
52799;DHT22;38667;42.872;74.622;2023-07-13T00:34:24;24.70;41.70
52799;DHT22;38667;42.872;74.622;2023-07-13T00:36:52;24.60;43.70
52799;DHT22;38667;42.872;74.622;2023-07-13T00:39:18;24.60;42.00
52799;DHT22;38667;42.872;74.622;2023-07-13T00:41:45;24.80;41.10
52799;DHT22;38667;42.872;74.622;2023-07-13T00:44:14;24.90;41.10
52799;DHT22;38667;42.872;74.622;2023-07-13T00:46:40;24.90;42.70
52799;DHT22;38667;42.872;74.622;2023-07-13T00:49:10;24.80;44.20
52799;DHT22;38667;42.872;74.622;2023-07-13T00:51:41;24.60;45.00
52799;DHT22;38667;42.872;74.622;2023-07-13T00:54:13;24.60;43.70
52799;DHT22;38667;42.872;74.622;2023-07-13T00:56:40;24.80;43.50
52799;DHT22;38667;42.872;74.622;2023-07-13T00:59:09;25.00;44.70
52799;DHT22;38667;42.872;74.622;2023-07-13T01:01:36;24.90;46.60
52799;DHT22;38667;42.872;74.622;2023-07-13T01:04:03;24.80;47.60
52799;DHT22;38667;42.872;74.622;2023-07-13T01:06:29;24.70;48.60
52799;DHT22;38667;42.872;74.622;2023-07-13T01:08:56;24.70;46.50
52799;DHT22;38667;42.872;74.622;2023-07-13T01:11:27;24.90;45.80
52799;DHT22;38667;42.872;74.622;2023-07-13T01:13:53;25.00;47.10
52799;DHT22;38667;42.872;74.622;2023-07-13T01:16:24;25.00;48.00
52799;DHT22;38667;42.872;74.622;2023-07-13T01:18:51;24.90;48.10
52799;DHT22;38667;42.872;74.622;2023-07-13T01:21:18;24.80;48.50
52799;DHT22;38667;42.872;74.622;2023-07-13T01:23:45;24.90;48.00
52799;DHT22;38667;42.872;74.622;2023-07-13T01:26:11;25.10;47.90
52799;DHT22;38667;42.872;74.622;2023-07-13T01:28:38;25.20;48.10
52799;DHT22;38667;42.872;74.622;2023-07-13T01:31:04;25.20;49.50
52799;DHT22;38667;42.872;74.622;2023-07-13T01:33:31;25.10;50.80
52799;DHT22;38667;42.872;74.622;2023-07-13T01:35:57;25.00;50.00
52799;DHT22;38667;42.872;74.622;2023-07-13T01:38:26;25.20;48.20
52799;DHT22;38667;42.872;74.622;2023-07-13T01:40:52;25.40;48.10
52799;DHT22;38667;42.872;74.622;2023-07-13T01:43:19;25.50;45.80
52799;DHT22;38667;42.872;74.622;2023-07-13T01:45:46;25.60;45.30
52799;DHT22;38667;42.872;74.622;2023-07-13T01:48:12;25.50;45.30
52799;DHT22;38667;42.872;74.622;2023-07-13T01:50:39;25.50;44.10
52799;DHT22;38667;42.872;74.622;2023-07-13T01:53:05;25.80;44.80
52799;DHT22;38667;42.872;74.622;2023-07-13T01:55:34;26.10;43.50
52799;DHT22;38667;42.872;74.622;2023-07-13T01:58:00;26.30;43.60
52799;DHT22;38667;42.872;74.622;2023-07-13T02:00:27;26.30;42.70
52799;DHT22;38667;42.872;74.622;2023-07-13T02:02:53;26.30;41.90
52799;DHT22;38667;42.872;74.622;2023-07-13T02:05:20;26.20;41.80
52799;DHT22;38667;42.872;74.622;2023-07-13T02:07:46;26.60;41.60
52799;DHT22;38667;42.872;74.622;2023-07-13T02:10:13;26.90;40.70
52799;DHT22;38667;42.872;74.622;2023-07-13T02:12:41;27.10;41.20
52799;DHT22;38667;42.872;74.622;2023-07-13T02:15:09;27.10;41.10
52799;DHT22;38667;42.872;74.622;2023-07-13T02:17:36;27.00;40.90
52799;DHT22;38667;42.872;74.622;2023-07-13T02:20:03;27.10;40.70
52799;DHT22;38667;42.872;74.622;2023-07-13T02:22:30;27.40;41.40
52799;DHT22;38667;42.872;74.622;2023-07-13T02:24:56;27.70;41.50
52799;DHT22;38667;42.872;74.622;2023-07-13T02:27:23;27.80;41.10
52799;DHT22;38667;42.872;74.622;2023-07-13T02:29:51;27.70;41.50
52799;DHT22;38667;42.872;74.622;2023-07-13T02:32:17;27.60;42.10
52799;DHT22;38667;42.872;74.622;2023-07-13T02:34:44;27.70;41.10
52799;DHT22;38667;42.872;74.622;2023-07-13T02:37:10;28.10;40.10
52799;DHT22;38667;42.872;74.622;2023-07-13T02:39:37;28.30;39.60
52799;DHT22;38667;42.872;74.622;2023-07-13T02:42:03;28.40;39.10
52799;DHT22;38667;42.872;74.622;2023-07-13T02:44:30;28.30;38.30
52799;DHT22;38667;42.872;74.622;2023-07-13T02:46:58;28.20;37.80
52799;DHT22;38667;42.872;74.622;2023-07-13T02:49:24;28.40;36.00
52799;DHT22;38667;42.872;74.622;2023-07-13T02:51:51;28.80;35.30
52799;DHT22;38667;42.872;74.622;2023-07-13T02:54:17;29.20;34.30
52799;DHT22;38667;42.872;74.622;2023-07-13T02:56:44;29.20;34.60
52799;DHT22;38667;42.872;74.622;2023-07-13T02:59:10;29.00;35.50
52799;DHT22;38667;42.872;74.622;2023-07-13T03:01:37;28.90;34.70
52799;DHT22;38667;42.872;74.622;2023-07-13T03:04:05;29.10;35.00
52799;DHT22;38667;42.872;74.622;2023-07-13T03:06:32;29.40;34.70
52799;DHT22;38667;42.872;74.622;2023-07-13T03:08:58;29.50;34.90
52799;DHT22;38667;42.872;74.622;2023-07-13T03:11:24;29.40;35.20
52799;DHT22;38667;42.872;74.622;2023-07-13T03:13:51;29.30;35.30
52799;DHT22;38667;42.872;74.622;2023-07-13T03:16:18;29.40;36.10
52799;DHT22;38667;42.872;74.622;2023-07-13T03:18:45;29.70;35.40
52799;DHT22;38667;42.872;74.622;2023-07-13T03:21:13;29.90;34.20
52799;DHT22;38667;42.872;74.622;2023-07-13T03:23:39;30.00;34.40
52799;DHT22;38667;42.872;74.622;2023-07-13T03:26:08;29.90;34.50
52799;DHT22;38667;42.872;74.622;2023-07-13T03:28:35;29.80;34.80
52799;DHT22;38667;42.872;74.622;2023-07-13T03:31:04;30.00;35.10
52799;DHT22;38667;42.872;74.622;2023-07-13T03:33:31;30.30;35.30
52799;DHT22;38667;42.872;74.622;2023-07-13T03:35:58;30.50;35.20
52799;DHT22;38667;42.872;74.622;2023-07-13T03:38:25;30.60;35.10
52799;DHT22;38667;42.872;74.622;2023-07-13T03:40:52;30.80;33.60
52799;DHT22;38667;42.872;74.622;2023-07-13T03:43:18;30.90;33.50
52799;DHT22;38667;42.872;74.622;2023-07-13T03:45:45;31.00;33.50
52799;DHT22;38667;42.872;74.622;2023-07-13T03:48:11;31.10;33.10
52799;DHT22;38667;42.872;74.622;2023-07-13T03:50:37;31.30;32.60
52799;DHT22;38667;42.872;74.622;2023-07-13T03:53:04;31.30;32.30
52799;DHT22;38667;42.872;74.622;2023-07-13T03:55:32;31.40;32.90
52799;DHT22;38667;42.872;74.622;2023-07-13T03:57:59;31.40;32.40
52799;DHT22;38667;42.872;74.622;2023-07-13T04:00:26;31.50;31.90
52799;DHT22;38667;42.872;74.622;2023-07-13T04:02:52;31.60;31.80
52799;DHT22;38667;42.872;74.622;2023-07-13T04:05:19;31.70;32.30
52799;DHT22;38667;42.872;74.622;2023-07-13T04:07:45;31.80;32.50
52799;DHT22;38667;42.872;74.622;2023-07-13T04:10:11;31.90;33.00
52799;DHT22;38667;42.872;74.622;2023-07-13T04:12:39;31.90;31.80
52799;DHT22;38667;42.872;74.622;2023-07-13T04:15:07;32.00;31.90
52799;DHT22;38667;42.872;74.622;2023-07-13T04:17:33;32.10;32.30
52799;DHT22;38667;42.872;74.622;2023-07-13T04:20:00;32.10;32.60
52799;DHT22;38667;42.872;74.622;2023-07-13T04:22:26;32.20;32.90
52799;DHT22;38667;42.872;74.622;2023-07-13T04:24:52;32.10;32.70
52799;DHT22;38667;42.872;74.622;2023-07-13T04:27:18;32.00;32.20
52799;DHT22;38667;42.872;74.622;2023-07-13T04:29:47;31.90;31.50
52799;DHT22;38667;42.872;74.622;2023-07-13T04:32:13;32.10;31.20
52799;DHT22;38667;42.872;74.622;2023-07-13T04:34:40;32.30;29.80
52799;DHT22;38667;42.872;74.622;2023-07-13T04:37:06;32.60;29.80
52799;DHT22;38667;42.872;74.622;2023-07-13T04:39:32;32.80;29.20
52799;DHT22;38667;42.872;74.622;2023-07-13T04:41:59;32.80;29.90
52799;DHT22;38667;42.872;74.622;2023-07-13T04:44:25;32.60;30.40
52799;DHT22;38667;42.872;74.622;2023-07-13T04:46:53;32.50;30.50
52799;DHT22;38667;42.872;74.622;2023-07-13T04:49:19;32.50;29.20
52799;DHT22;38667;42.872;74.622;2023-07-13T04:51:45;32.80;29.40
52799;DHT22;38667;42.872;74.622;2023-07-13T04:54:12;32.90;29.50
52799;DHT22;38667;42.872;74.622;2023-07-13T04:56:38;33.00;30.80
52799;DHT22;38667;42.872;74.622;2023-07-13T04:59:04;32.90;30.40
52799;DHT22;38667;42.872;74.622;2023-07-13T05:01:31;32.80;29.30
52799;DHT22;38667;42.872;74.622;2023-07-13T05:03:58;32.80;29.00
52799;DHT22;38667;42.872;74.622;2023-07-13T05:06:25;32.90;29.30
52799;DHT22;38667;42.872;74.622;2023-07-13T05:08:51;33.20;28.80
52799;DHT22;38667;42.872;74.622;2023-07-13T05:11:18;33.30;28.50
52799;DHT22;38667;42.872;74.622;2023-07-13T05:13:45;33.40;28.90
52799;DHT22;38667;42.872;74.622;2023-07-13T05:16:11;33.30;28.20
52799;DHT22;38667;42.872;74.622;2023-07-13T05:18:37;33.20;28.20
52799;DHT22;38667;42.872;74.622;2023-07-13T05:21:06;33.10;28.80
52799;DHT22;38667;42.872;74.622;2023-07-13T05:23:34;33.40;29.00
52799;DHT22;38667;42.872;74.622;2023-07-13T05:26:00;33.60;27.30
52799;DHT22;38667;42.872;74.622;2023-07-13T05:28:27;33.60;26.60
52799;DHT22;38667;42.872;74.622;2023-07-13T05:30:54;33.60;26.10
52799;DHT22;38667;42.872;74.622;2023-07-13T05:33:21;33.50;26.00
52799;DHT22;38667;42.872;74.622;2023-07-13T05:35:47;33.50;26.30
52799;DHT22;38667;42.872;74.622;2023-07-13T05:38:15;33.70;24.90
52799;DHT22;38667;42.872;74.622;2023-07-13T05:40:43;34.00;26.40
52799;DHT22;38667;42.872;74.622;2023-07-13T05:43:09;34.20;24.70
52799;DHT22;38667;42.872;74.622;2023-07-13T05:45:36;34.40;24.80
52799;DHT22;38667;42.872;74.622;2023-07-13T05:48:02;34.60;25.20
52799;DHT22;38667;42.872;74.622;2023-07-13T05:50:28;34.90;24.90
52799;DHT22;38667;42.872;74.622;2023-07-13T05:52:55;35.40;24.30
52799;DHT22;38667;42.872;74.622;2023-07-13T05:55:23;35.90;23.90
52799;DHT22;38667;42.872;74.622;2023-07-13T05:57:49;36.20;25.40
52799;DHT22;38667;42.872;74.622;2023-07-13T06:00:16;36.50;25.00
52799;DHT22;38667;42.872;74.622;2023-07-13T06:02:42;36.50;24.60
52799;DHT22;38667;42.872;74.622;2023-07-13T06:05:09;36.50;24.70
52799;DHT22;38667;42.872;74.622;2023-07-13T06:07:35;36.40;21.90
52799;DHT22;38667;42.872;74.622;2023-07-13T06:10:02;36.70;22.40
52799;DHT22;38667;42.872;74.622;2023-07-13T06:12:30;36.80;22.20
52799;DHT22;38667;42.872;74.622;2023-07-13T06:14:57;36.70;22.40
52799;DHT22;38667;42.872;74.622;2023-07-13T06:17:23;36.50;21.50
52799;DHT22;38667;42.872;74.622;2023-07-13T06:19:49;36.30;21.90
52799;DHT22;38667;42.872;74.622;2023-07-13T06:22:16;36.10;21.80
52799;DHT22;38667;42.872;74.622;2023-07-13T06:24:42;36.00;21.10
52799;DHT22;38667;42.872;74.622;2023-07-13T06:27:08;35.90;22.00
52799;DHT22;38667;42.872;74.622;2023-07-13T06:29:37;36.00;22.20
52799;DHT22;38667;42.872;74.622;2023-07-13T06:32:04;35.90;22.10
52799;DHT22;38667;42.872;74.622;2023-07-13T06:34:30;35.80;20.90
52799;DHT22;38667;42.872;74.622;2023-07-13T06:36:56;35.70;22.00
52799;DHT22;38667;42.872;74.622;2023-07-13T06:39:23;35.70;22.30
52799;DHT22;38667;42.872;74.622;2023-07-13T06:41:49;35.80;22.30
52799;DHT22;38667;42.872;74.622;2023-07-13T06:44:16;35.70;21.30
52799;DHT22;38667;42.872;74.622;2023-07-13T06:46:43;35.70;22.00
52799;DHT22;38667;42.872;74.622;2023-07-13T06:49:10;35.60;22.50
52799;DHT22;38667;42.872;74.622;2023-07-13T06:51:36;35.50;22.50
52799;DHT22;38667;42.872;74.622;2023-07-13T06:54:03;35.60;22.70
52799;DHT22;38667;42.872;74.622;2023-07-13T06:56:30;35.70;20.80
52799;DHT22;38667;42.872;74.622;2023-07-13T06:58:56;35.70;21.10
52799;DHT22;38667;42.872;74.622;2023-07-13T07:01:22;35.80;21.10
52799;DHT22;38667;42.872;74.622;2023-07-13T07:03:51;35.70;19.90
52799;DHT22;38667;42.872;74.622;2023-07-13T07:06:20;35.50;19.00
52799;DHT22;38667;42.872;74.622;2023-07-13T07:08:46;35.60;19.20
52799;DHT22;38667;42.872;74.622;2023-07-13T07:11:15;35.80;19.70
52799;DHT22;38667;42.872;74.622;2023-07-13T07:13:42;35.90;18.80
52799;DHT22;38667;42.872;74.622;2023-07-13T07:16:09;36.10;19.10
52799;DHT22;38667;42.872;74.622;2023-07-13T07:18:35;36.10;21.00
52799;DHT22;38667;42.872;74.622;2023-07-13T07:21:03;36.00;22.00
52799;DHT22;38667;42.872;74.622;2023-07-13T07:23:29;35.00;22.40
52799;DHT22;38667;42.872;74.622;2023-07-13T07:25:56;34.00;24.90
52799;DHT22;38667;42.872;74.622;2023-07-13T07:28:22;33.40;26.10
52799;DHT22;38667;42.872;74.622;2023-07-13T07:30:52;33.10;25.20
52799;DHT22;38667;42.872;74.622;2023-07-13T07:33:18;32.70;25.50
52799;DHT22;38667;42.872;74.622;2023-07-13T07:35:45;32.60;26.30
52799;DHT22;38667;42.872;74.622;2023-07-13T07:38:13;32.50;27.10
52799;DHT22;38667;42.872;74.622;2023-07-13T07:40:40;32.60;25.70
52799;DHT22;38667;42.872;74.622;2023-07-13T07:43:06;32.40;24.00
52799;DHT22;38667;42.872;74.622;2023-07-13T07:45:33;32.40;25.70
52799;DHT22;38667;42.872;74.622;2023-07-13T07:47:59;31.90;26.90
52799;DHT22;38667;42.872;74.622;2023-07-13T07:50:26;31.30;26.80
52799;DHT22;38667;42.872;74.622;2023-07-13T07:52:52;31.00;27.50
52799;DHT22;38667;42.872;74.622;2023-07-13T07:55:20;31.00;27.00
52799;DHT22;38667;42.872;74.622;2023-07-13T07:57:47;32.00;23.40
52799;DHT22;38667;42.872;74.622;2023-07-13T08:00:14;32.50;22.90
52799;DHT22;38667;42.872;74.622;2023-07-13T08:02:41;32.30;24.00
52799;DHT22;38667;42.872;74.622;2023-07-13T08:05:07;32.30;24.10
52799;DHT22;38667;42.872;74.622;2023-07-13T08:07:34;31.70;24.50
52799;DHT22;38667;42.872;74.622;2023-07-13T08:10:00;31.30;24.50
52799;DHT22;38667;42.872;74.622;2023-07-13T08:12:28;31.10;25.60
52799;DHT22;38667;42.872;74.622;2023-07-13T08:14:55;30.70;26.10
52799;DHT22;38667;42.872;74.622;2023-07-13T08:17:21;30.80;25.00
52799;DHT22;38667;42.872;74.622;2023-07-13T08:19:47;31.20;25.50
52799;DHT22;38667;42.872;74.622;2023-07-13T08:22:14;31.00;26.10
52799;DHT22;38667;42.872;74.622;2023-07-13T08:24:40;30.50;26.30
52799;DHT22;38667;42.872;74.622;2023-07-13T08:27:07;30.30;26.40
52799;DHT22;38667;42.872;74.622;2023-07-13T08:29:34;30.30;26.20
52799;DHT22;38667;42.872;74.622;2023-07-13T08:32:01;30.50;26.20
52799;DHT22;38667;42.872;74.622;2023-07-13T08:34:27;30.70;25.50
52799;DHT22;38667;42.872;74.622;2023-07-13T08:36:53;30.50;25.70
52799;DHT22;38667;42.872;74.622;2023-07-13T08:39:20;30.60;24.90
52799;DHT22;38667;42.872;74.622;2023-07-13T08:41:47;30.50;25.50
52799;DHT22;38667;42.872;74.622;2023-07-13T08:44:20;30.60;25.40
52799;DHT22;38667;42.872;74.622;2023-07-13T08:46:53;30.70;24.90
52799;DHT22;38667;42.872;74.622;2023-07-13T08:49:22;31.20;24.90
52799;DHT22;38667;42.872;74.622;2023-07-13T08:51:53;31.30;24.50
52799;DHT22;38667;42.872;74.622;2023-07-13T08:54:27;31.10;24.70
52799;DHT22;38667;42.872;74.622;2023-07-13T08:56:54;31.00;25.00
52799;DHT22;38667;42.872;74.622;2023-07-13T08:59:25;30.90;24.60
52799;DHT22;38667;42.872;74.622;2023-07-13T09:04:44;31.40;24.50
52799;DHT22;38667;42.872;74.622;2023-07-13T09:07:17;31.30;24.30
52799;DHT22;38667;42.872;74.622;2023-07-13T09:09:55;31.00;25.30
52799;DHT22;38667;42.872;74.622;2023-07-13T09:12:30;31.20;25.00
52799;DHT22;38667;42.872;74.622;2023-07-13T09:14:59;31.30;24.90
52799;DHT22;38667;42.872;74.622;2023-07-13T09:17:32;31.50;24.70
52799;DHT22;38667;42.872;74.622;2023-07-13T09:20:02;31.60;24.20
52799;DHT22;38667;42.872;74.622;2023-07-13T09:22:33;31.40;24.40
52799;DHT22;38667;42.872;74.622;2023-07-13T09:25:06;31.70;24.20
52799;DHT22;38667;42.872;74.622;2023-07-13T09:27:41;31.90;23.60
52799;DHT22;38667;42.872;74.622;2023-07-13T09:30:24;32.90;22.10
52799;DHT22;38667;42.872;74.622;2023-07-13T09:32:55;33.50;22.60
52799;DHT22;38667;42.872;74.622;2023-07-13T09:35:26;33.80;21.90
52799;DHT22;38667;42.872;74.622;2023-07-13T09:37:56;33.50;22.50
52799;DHT22;38667;42.872;74.622;2023-07-13T09:40:28;32.40;23.70
52799;DHT22;38667;42.872;74.622;2023-07-13T09:42:56;31.50;24.70
52799;DHT22;38667;42.872;74.622;2023-07-13T09:45:28;31.10;26.00
52799;DHT22;38667;42.872;74.622;2023-07-13T09:48:05;32.80;24.10
52799;DHT22;38667;42.872;74.622;2023-07-13T09:50:32;31.90;25.20
52799;DHT22;38667;42.872;74.622;2023-07-13T09:52:58;31.80;25.20
52799;DHT22;38667;42.872;74.622;2023-07-13T09:55:29;32.40;25.50
52799;DHT22;38667;42.872;74.622;2023-07-13T09:57:56;32.40;25.70
52799;DHT22;38667;42.872;74.622;2023-07-13T10:00:25;32.40;25.10
52799;DHT22;38667;42.872;74.622;2023-07-13T10:03:02;31.60;26.30
52799;DHT22;38667;42.872;74.622;2023-07-13T10:05:38;31.40;26.00
52799;DHT22;38667;42.872;74.622;2023-07-13T10:08:04;31.80;23.60
52799;DHT22;38667;42.872;74.622;2023-07-13T10:10:30;32.00;25.50
52799;DHT22;38667;42.872;74.622;2023-07-13T10:12:57;31.60;26.30
52799;DHT22;38667;42.872;74.622;2023-07-13T10:15:24;32.60;24.10
52799;DHT22;38667;42.872;74.622;2023-07-13T10:17:52;32.30;25.10
52799;DHT22;38667;42.872;74.622;2023-07-13T10:20:21;31.70;26.20
52799;DHT22;38667;42.872;74.622;2023-07-13T10:22:52;31.40;25.80
52799;DHT22;38667;42.872;74.622;2023-07-13T10:25:21;31.80;23.60
52799;DHT22;38667;42.872;74.622;2023-07-13T10:27:50;33.40;21.80
52799;DHT22;38667;42.872;74.622;2023-07-13T10:30:20;34.60;22.00
52799;DHT22;38667;42.872;74.622;2023-07-13T10:32:47;35.40;22.20
52799;DHT22;38667;42.872;74.622;2023-07-13T10:35:15;35.90;21.90
52799;DHT22;38667;42.872;74.622;2023-07-13T10:37:48;36.20;22.10
52799;DHT22;38667;42.872;74.622;2023-07-13T10:40:19;36.50;22.00
52799;DHT22;38667;42.872;74.622;2023-07-13T10:42:51;36.60;23.00
52799;DHT22;38667;42.872;74.622;2023-07-13T10:45:22;36.80;21.00
52799;DHT22;38667;42.872;74.622;2023-07-13T10:47:49;36.80;20.50
52799;DHT22;38667;42.872;74.622;2023-07-13T10:50:21;36.90;20.80
52799;DHT22;38667;42.872;74.622;2023-07-13T10:52:51;37.00;21.70
52799;DHT22;38667;42.872;74.622;2023-07-13T10:55:35;37.10;21.70
52799;DHT22;38667;42.872;74.622;2023-07-13T10:58:08;37.10;21.20
52799;DHT22;38667;42.872;74.622;2023-07-13T11:00:44;37.10;21.70
52799;DHT22;38667;42.872;74.622;2023-07-13T11:03:15;37.10;21.30
52799;DHT22;38667;42.872;74.622;2023-07-13T11:05:42;37.10;21.70
52799;DHT22;38667;42.872;74.622;2023-07-13T11:08:19;37.10;21.30
52799;DHT22;38667;42.872;74.622;2023-07-13T11:10:54;37.20;21.30
52799;DHT22;38667;42.872;74.622;2023-07-13T11:13:56;37.20;21.50
52799;DHT22;38667;42.872;74.622;2023-07-13T11:16:45;37.10;21.00
52799;DHT22;38667;42.872;74.622;2023-07-13T11:19:27;37.20;22.30
52799;DHT22;38667;42.872;74.622;2023-07-13T11:22:20;37.20;20.20
52799;DHT22;38667;42.872;74.622;2023-07-13T11:28:16;37.10;22.00
52799;DHT22;38667;42.872;74.622;2023-07-13T11:30:46;37.10;21.20
52799;DHT22;38667;42.872;74.622;2023-07-13T11:33:16;37.00;20.70
52799;DHT22;38667;42.872;74.622;2023-07-13T11:35:58;36.90;21.70
52799;DHT22;38667;42.872;74.622;2023-07-13T11:38:30;36.80;21.50
52799;DHT22;38667;42.872;74.622;2023-07-13T11:41:01;36.80;23.00
52799;DHT22;38667;42.872;74.622;2023-07-13T11:43:30;36.80;22.40
52799;DHT22;38667;42.872;74.622;2023-07-13T11:45:56;36.70;22.30
52799;DHT22;38667;42.872;74.622;2023-07-13T11:48:25;36.70;20.70
52799;DHT22;38667;42.872;74.622;2023-07-13T11:50:55;36.80;20.60
52799;DHT22;38667;42.872;74.622;2023-07-13T11:53:22;36.80;21.50
52799;DHT22;38667;42.872;74.622;2023-07-13T11:55:49;36.70;21.80
52799;DHT22;38667;42.872;74.622;2023-07-13T11:58:21;36.50;23.30
52799;DHT22;38667;42.872;74.622;2023-07-13T12:00:51;36.50;22.00
52799;DHT22;38667;42.872;74.622;2023-07-13T12:03:20;36.40;22.10
52799;DHT22;38667;42.872;74.622;2023-07-13T12:05:56;36.40;22.10
52799;DHT22;38667;42.872;74.622;2023-07-13T12:08:23;36.30;21.90
52799;DHT22;38667;42.872;74.622;2023-07-13T12:10:57;36.30;22.20
52799;DHT22;38667;42.872;74.622;2023-07-13T12:13:23;36.40;22.40
52799;DHT22;38667;42.872;74.622;2023-07-13T12:15:51;36.40;22.80
52799;DHT22;38667;42.872;74.622;2023-07-13T12:18:21;36.40;23.10
52799;DHT22;38667;42.872;74.622;2023-07-13T12:20:49;36.30;22.30
52799;DHT22;38667;42.872;74.622;2023-07-13T12:23:22;36.20;23.40
52799;DHT22;38667;42.872;74.622;2023-07-13T12:25:49;36.10;23.30
52799;DHT22;38667;42.872;74.622;2023-07-13T12:28:29;36.00;23.60
52799;DHT22;38667;42.872;74.622;2023-07-13T12:31:01;35.90;22.90
52799;DHT22;38667;42.872;74.622;2023-07-13T12:33:28;35.80;22.20
52799;DHT22;38667;42.872;74.622;2023-07-13T12:35:55;35.80;22.50
52799;DHT22;38667;42.872;74.622;2023-07-13T12:38:24;35.80;23.30
52799;DHT22;38667;42.872;74.622;2023-07-13T12:40:52;35.70;21.90
52799;DHT22;38667;42.872;74.622;2023-07-13T12:43:20;35.60;22.60
52799;DHT22;38667;42.872;74.622;2023-07-13T12:46:00;35.60;22.40
52799;DHT22;38667;42.872;74.622;2023-07-13T12:48:27;35.50;22.20
52799;DHT22;38667;42.872;74.622;2023-07-13T12:50:54;35.40;22.20
52799;DHT22;38667;42.872;74.622;2023-07-13T12:53:23;35.40;22.20
52799;DHT22;38667;42.872;74.622;2023-07-13T12:55:52;35.30;23.00
52799;DHT22;38667;42.872;74.622;2023-07-13T12:58:25;35.30;22.90
52799;DHT22;38667;42.872;74.622;2023-07-13T13:00:54;35.30;22.40
52799;DHT22;38667;42.872;74.622;2023-07-13T13:03:26;35.30;22.20
52799;DHT22;38667;42.872;74.622;2023-07-13T13:06:00;35.40;22.50
52799;DHT22;38667;42.872;74.622;2023-07-13T13:08:27;35.30;22.60
52799;DHT22;38667;42.872;74.622;2023-07-13T13:10:53;35.40;22.20
52799;DHT22;38667;42.872;74.622;2023-07-13T13:13:19;35.40;21.80
52799;DHT22;38667;42.872;74.622;2023-07-13T13:15:46;35.50;21.00
52799;DHT22;38667;42.872;74.622;2023-07-13T13:18:16;35.50;20.60
52799;DHT22;38667;42.872;74.622;2023-07-13T13:20:44;35.40;20.70
52799;DHT22;38667;42.872;74.622;2023-07-13T13:23:13;35.50;20.80
52799;DHT22;38667;42.872;74.622;2023-07-13T13:25:39;35.70;21.10
52799;DHT22;38667;42.872;74.622;2023-07-13T13:28:08;35.70;20.90
52799;DHT22;38667;42.872;74.622;2023-07-13T13:30:36;35.70;20.80
52799;DHT22;38667;42.872;74.622;2023-07-13T13:33:04;35.80;20.70
52799;DHT22;38667;42.872;74.622;2023-07-13T13:35:31;35.70;20.80
52799;DHT22;38667;42.872;74.622;2023-07-13T13:37:58;35.70;21.40
52799;DHT22;38667;42.872;74.622;2023-07-13T13:40:25;35.70;21.10
52799;DHT22;38667;42.872;74.622;2023-07-13T13:42:51;35.70;21.10
52799;DHT22;38667;42.872;74.622;2023-07-13T13:45:18;35.60;21.50
52799;DHT22;38667;42.872;74.622;2023-07-13T13:47:44;35.60;21.00
52799;DHT22;38667;42.872;74.622;2023-07-13T13:50:14;35.60;21.10
52799;DHT22;38667;42.872;74.622;2023-07-13T13:52:41;35.50;21.90
52799;DHT22;38667;42.872;74.622;2023-07-13T13:55:14;35.50;21.70
52799;DHT22;38667;42.872;74.622;2023-07-13T13:57:40;35.30;22.60
52799;DHT22;38667;42.872;74.622;2023-07-13T14:00:09;35.20;22.60
52799;DHT22;38667;42.872;74.622;2023-07-13T14:02:36;35.00;23.70
52799;DHT22;38667;42.872;74.622;2023-07-13T14:05:03;34.90;22.70
52799;DHT22;38667;42.872;74.622;2023-07-13T14:07:30;34.90;23.50
52799;DHT22;38667;42.872;74.622;2023-07-13T14:09:57;34.80;24.00
52799;DHT22;38667;42.872;74.622;2023-07-13T14:12:27;34.70;23.70
52799;DHT22;38667;42.872;74.622;2023-07-13T14:14:54;34.70;24.00
52799;DHT22;38667;42.872;74.622;2023-07-13T14:17:21;34.50;24.40
52799;DHT22;38667;42.872;74.622;2023-07-13T14:19:48;34.40;25.40
52799;DHT22;38667;42.872;74.622;2023-07-13T14:22:15;34.20;25.90
52799;DHT22;38667;42.872;74.622;2023-07-13T14:24:41;34.10;25.90
52799;DHT22;38667;42.872;74.622;2023-07-13T14:27:08;33.90;25.40
52799;DHT22;38667;42.872;74.622;2023-07-13T14:29:36;33.70;25.50
52799;DHT22;38667;42.872;74.622;2023-07-13T14:32:03;33.40;26.10
52799;DHT22;38667;42.872;74.622;2023-07-13T14:34:30;33.40;26.70
52799;DHT22;38667;42.872;74.622;2023-07-13T14:36:56;33.30;27.20
52799;DHT22;38667;42.872;74.622;2023-07-13T14:39:24;33.30;27.50
52799;DHT22;38667;42.872;74.622;2023-07-13T14:41:52;33.10;27.90
52799;DHT22;38667;42.872;74.622;2023-07-13T14:44:21;33.00;28.00
52799;DHT22;38667;42.872;74.622;2023-07-13T14:46:50;32.80;27.30
52799;DHT22;38667;42.872;74.622;2023-07-13T14:49:24;32.60;27.80
52799;DHT22;38667;42.872;74.622;2023-07-13T14:51:50;32.70;27.90
52799;DHT22;38667;42.872;74.622;2023-07-13T14:54:17;32.80;27.80
52799;DHT22;38667;42.872;74.622;2023-07-13T14:56:43;32.90;27.50
52799;DHT22;38667;42.872;74.622;2023-07-13T14:59:10;33.00;28.80
52799;DHT22;38667;42.872;74.622;2023-07-13T15:01:37;32.80;28.50
52799;DHT22;38667;42.872;74.622;2023-07-13T15:04:06;32.60;28.80
52799;DHT22;38667;42.872;74.622;2023-07-13T15:06:53;32.30;29.30
52799;DHT22;38667;42.872;74.622;2023-07-13T15:09:19;32.20;28.80
52799;DHT22;38667;42.872;74.622;2023-07-13T15:11:46;32.40;27.50
52799;DHT22;38667;42.872;74.622;2023-07-13T15:14:12;32.70;26.60
52799;DHT22;38667;42.872;74.622;2023-07-13T15:16:38;32.90;26.10
52799;DHT22;38667;42.872;74.622;2023-07-13T15:19:09;32.90;25.90
52799;DHT22;38667;42.872;74.622;2023-07-13T15:21:36;32.90;26.10
52799;DHT22;38667;42.872;74.622;2023-07-13T15:24:02;32.80;26.30
52799;DHT22;38667;42.872;74.622;2023-07-13T15:26:29;32.80;27.20